createdAt,value
2023-05-20T00:00:01.950Z,92763.00
2023-05-20T00:01:01.800Z,92763.00
2023-05-20T00:02:01.970Z,92761.00
2023-05-20T00:03:02.043Z,92761.00
2023-05-20T00:04:02.147Z,92767.00
2023-05-20T00:05:02.188Z,92769.00
2023-05-20T00:06:02.151Z,92773.00
2023-05-20T00:07:02.209Z,92779.00
2023-05-20T00:08:02.270Z,92781.00
2023-05-20T00:09:02.333Z,92783.00
2023-05-20T00:10:02.398Z,92787.00
2023-05-20T00:11:02.436Z,92787.00
2023-05-20T00:12:02.497Z,92788.00
2023-05-20T00:13:02.581Z,92790.00
2023-05-20T00:14:02.649Z,92790.00
2023-05-20T00:15:02.671Z,92790.00
2023-05-20T00:16:02.772Z,92792.00
2023-05-20T00:17:02.793Z,92788.00
2023-05-20T00:18:02.880Z,92788.00
2023-05-20T00:19:02.946Z,92788.00
2023-05-20T00:20:02.945Z,92788.00
2023-05-20T00:21:03.003Z,92787.00
2023-05-20T00:22:02.985Z,92785.00
2023-05-20T00:23:03.014Z,92787.00
2023-05-20T00:24:03.062Z,92788.00
2023-05-20T00:25:03.108Z,92787.00
2023-05-20T00:26:03.130Z,92787.00
2023-05-20T00:27:03.171Z,92785.00
2023-05-20T00:28:03.201Z,92785.00
2023-05-20T00:29:03.234Z,92783.00
2023-05-20T00:30:03.273Z,92785.00
2023-05-20T00:31:03.292Z,92783.00
2023-05-20T00:32:03.343Z,92779.00
2023-05-20T00:33:03.415Z,92781.00
2023-05-20T00:34:03.379Z,92781.00
2023-05-20T00:35:03.406Z,92781.00
2023-05-20T00:36:03.456Z,92781.00
2023-05-20T00:37:03.486Z,92779.00
2023-05-20T00:38:03.516Z,92781.00
2023-05-20T00:39:03.526Z,92779.00
2023-05-20T00:40:03.562Z,92779.00
2023-05-20T00:41:03.581Z,92781.00
2023-05-20T00:42:03.623Z,92779.00
2023-05-20T00:43:03.664Z,92781.00
2023-05-20T00:44:03.673Z,92781.00
2023-05-20T00:45:03.774Z,92779.00
2023-05-20T00:46:03.777Z,92779.00
2023-05-20T00:47:03.752Z,92777.00
2023-05-20T00:48:03.888Z,92779.00
2023-05-20T00:49:03.824Z,92777.00
2023-05-20T00:50:04.279Z,92777.00
2023-05-20T00:51:03.865Z,92777.00
2023-05-20T00:52:03.895Z,92779.00
2023-05-20T00:53:03.935Z,92781.00
2023-05-20T00:54:03.956Z,92783.00
2023-05-20T00:55:03.983Z,92785.00
2023-05-20T00:56:04.021Z,92787.00
2023-05-20T00:57:04.042Z,92785.00
2023-05-20T00:58:04.126Z,92785.00
2023-05-20T00:59:04.172Z,92781.00
2023-05-20T01:00:04.139Z,92779.00
2023-05-20T01:01:04.187Z,92777.00
2023-05-20T01:02:04.194Z,92777.00
2023-05-20T01:03:04.419Z,92775.00
2023-05-20T01:04:04.220Z,92777.00
2023-05-20T01:05:04.254Z,92779.00
2023-05-20T01:06:04.274Z,92779.00
2023-05-20T01:07:04.301Z,92779.00
2023-05-20T01:08:04.359Z,92775.00
2023-05-20T01:09:04.357Z,92775.00
2023-05-20T01:10:04.380Z,92773.00
2023-05-20T01:11:04.461Z,92775.00
2023-05-20T01:12:04.434Z,92773.00
2023-05-20T01:13:04.466Z,92771.00
2023-05-20T01:14:04.496Z,92769.00
2023-05-20T01:15:04.582Z,92767.00
2023-05-20T01:16:04.602Z,92769.00
2023-05-20T01:17:04.575Z,92769.00
2023-05-20T01:18:04.646Z,92769.00
2023-05-20T01:19:04.636Z,92771.00
2023-05-20T01:20:04.673Z,92773.00
2023-05-20T01:21:04.700Z,92777.00
2023-05-20T01:22:04.693Z,92779.00
2023-05-20T01:23:04.734Z,92781.00
2023-05-20T01:24:04.753Z,92783.00
2023-05-20T01:25:04.769Z,92779.00
2023-05-20T01:26:04.798Z,92779.00
2023-05-20T01:27:04.843Z,92783.00
2023-05-20T01:28:05.782Z,92783.00
2023-05-20T01:29:04.917Z,92785.00
2023-05-20T01:30:04.925Z,92781.00
2023-05-20T01:31:04.999Z,92783.00
2023-05-20T01:32:04.995Z,92781.00
2023-05-20T01:33:05.510Z,92775.00
2023-05-20T01:34:05.057Z,92777.00
2023-05-20T01:35:05.074Z,92773.00
2023-05-20T01:36:05.111Z,92771.00
2023-05-20T01:37:05.131Z,92771.00
2023-05-20T01:38:05.150Z,92773.00
2023-05-20T01:39:05.203Z,92775.00
2023-05-20T01:40:05.222Z,92779.00
2023-05-20T01:41:05.248Z,92779.00
2023-05-20T01:42:05.289Z,92781.00
2023-05-20T01:43:05.307Z,92779.00
2023-05-20T01:44:05.333Z,92779.00
2023-05-20T01:45:05.364Z,92777.00
2023-05-20T01:46:05.416Z,92775.00
2023-05-20T01:47:05.429Z,92775.00
2023-05-20T01:48:05.825Z,92771.00
2023-05-20T01:49:05.483Z,92771.00
2023-05-20T01:50:05.486Z,92769.00
2023-05-20T01:51:05.604Z,92773.00
2023-05-20T01:52:05.529Z,92771.00
2023-05-20T01:53:05.565Z,92773.00
2023-05-20T01:54:05.587Z,92773.00
2023-05-20T01:55:05.614Z,92775.00
2023-05-20T01:56:05.660Z,92775.00
2023-05-20T01:57:05.672Z,92775.00
2023-05-20T01:58:05.725Z,92775.00
2023-05-20T01:59:05.757Z,92775.00
2023-05-20T02:00:05.774Z,92773.00
2023-05-20T02:01:05.862Z,92773.00
2023-05-20T02:02:05.866Z,92775.00
2023-05-20T02:03:05.958Z,92773.00
2023-05-20T02:04:05.900Z,92771.00
2023-05-20T02:05:05.934Z,92769.00
2023-05-20T02:06:06.019Z,92773.00
2023-05-20T02:07:05.984Z,92771.00
2023-05-20T02:08:06.033Z,92771.00
2023-05-20T02:09:06.054Z,92771.00
2023-05-20T02:10:06.094Z,92767.00
2023-05-20T02:11:06.110Z,92767.00
2023-05-20T02:12:06.148Z,92767.00
2023-05-20T02:13:06.201Z,92769.00
2023-05-20T02:14:06.214Z,92771.00
2023-05-20T02:15:06.252Z,92771.00
2023-05-20T02:16:06.339Z,92773.00
2023-05-20T02:17:06.322Z,92775.00
2023-05-20T02:18:06.417Z,92775.00
2023-05-20T02:19:06.409Z,92775.00
2023-05-20T02:20:06.486Z,92777.00
2023-05-20T02:21:06.457Z,92775.00
2023-05-20T02:22:06.476Z,92777.00
2023-05-20T02:23:06.683Z,92775.00
2023-05-20T02:24:06.555Z,92775.00
2023-05-20T02:25:06.569Z,92773.00
2023-05-20T02:26:06.612Z,92773.00
2023-05-20T02:27:06.645Z,92775.00
2023-05-20T02:28:06.670Z,92773.00
2023-05-20T02:29:06.700Z,92773.00
2023-05-20T02:30:06.733Z,92771.00
2023-05-20T02:31:06.753Z,92771.00
2023-05-20T02:32:06.782Z,92769.00
2023-05-20T02:33:06.864Z,92769.00
2023-05-20T02:34:06.896Z,92767.00
2023-05-20T02:35:06.892Z,92765.00
2023-05-20T02:36:06.926Z,92769.00
2023-05-20T02:37:06.954Z,92769.00
2023-05-20T02:38:06.968Z,92769.00
2023-05-20T02:39:07.019Z,92773.00
2023-05-20T02:40:07.032Z,92775.00
2023-05-20T02:41:07.085Z,92777.00
2023-05-20T02:42:07.122Z,92777.00
2023-05-20T02:43:07.140Z,92775.00
2023-05-20T02:44:07.188Z,92773.00
2023-05-20T02:45:07.212Z,92773.00
2023-05-20T02:46:07.256Z,92771.00
2023-05-20T02:47:07.277Z,92769.00
2023-05-20T02:48:07.378Z,92771.00
2023-05-20T02:49:07.398Z,92769.00
2023-05-20T02:50:07.369Z,92769.00
2023-05-20T02:51:07.396Z,92769.00
2023-05-20T02:52:07.425Z,92765.00
2023-05-20T02:53:07.461Z,92767.00
2023-05-20T02:54:07.483Z,92765.00
2023-05-20T02:55:07.517Z,92765.00
2023-05-20T02:56:07.541Z,92767.00
2023-05-20T02:57:07.571Z,92769.00
2023-05-20T02:58:07.626Z,92769.00
2023-05-20T02:59:07.663Z,92771.00
2023-05-20T03:00:08.333Z,92773.00
2023-05-20T03:01:07.793Z,92773.00
2023-05-20T03:02:07.714Z,92771.00
2023-05-20T03:03:07.826Z,92775.00
2023-05-20T03:04:08.350Z,92775.00
2023-05-20T03:05:07.808Z,92773.00
2023-05-20T03:06:07.832Z,92773.00
2023-05-20T03:07:07.884Z,92773.00
2023-05-20T03:08:07.916Z,92773.00
2023-05-20T03:09:07.931Z,92771.00
2023-05-20T03:10:07.996Z,92771.00
2023-05-20T03:11:08.020Z,92771.00
2023-05-20T03:12:08.028Z,92769.00
2023-05-20T03:13:08.069Z,92767.00
2023-05-20T03:14:08.101Z,92769.00
2023-05-20T03:15:08.137Z,92767.00
2023-05-20T03:16:08.172Z,92765.00
2023-05-20T03:17:08.188Z,92765.00
2023-05-20T03:18:08.221Z,92765.00
2023-05-20T03:19:08.319Z,92765.00
2023-05-20T03:20:08.305Z,92765.00
2023-05-20T03:21:08.315Z,92765.00
2023-05-20T03:22:08.347Z,92765.00
2023-05-20T03:23:08.401Z,92767.00
2023-05-20T03:24:08.408Z,92767.00
2023-05-20T03:25:08.449Z,92767.00
2023-05-20T03:26:08.474Z,92767.00
2023-05-20T03:27:08.509Z,92769.00
2023-05-20T03:28:08.523Z,92767.00
2023-05-20T03:29:08.546Z,92763.00
2023-05-20T03:30:08.584Z,92767.00
2023-05-20T03:31:08.621Z,92763.00
2023-05-20T03:32:09.460Z,92765.00
2023-05-20T03:33:08.672Z,92761.00
2023-05-20T03:34:09.336Z,92761.00
2023-05-20T03:35:08.728Z,92759.00
2023-05-20T03:36:08.748Z,92757.00
2023-05-20T03:37:08.786Z,92755.00
2023-05-20T03:38:08.815Z,92753.00
2023-05-20T03:39:08.840Z,92751.00
2023-05-20T03:40:08.931Z,92751.00
2023-05-20T03:41:08.901Z,92751.00
2023-05-20T03:42:08.923Z,92751.00
2023-05-20T03:43:08.980Z,92751.00
2023-05-20T03:44:08.993Z,92751.00
2023-05-20T03:45:09.016Z,92753.00
2023-05-20T03:46:09.088Z,92757.00
2023-05-20T03:47:09.092Z,92757.00
2023-05-20T03:48:09.145Z,92757.00
2023-05-20T03:49:09.128Z,92755.00
2023-05-20T03:50:09.152Z,92755.00
2023-05-20T03:51:09.194Z,92759.00
2023-05-20T03:52:09.224Z,92757.00
2023-05-20T03:53:09.242Z,92759.00
2023-05-20T03:54:09.265Z,92757.00
2023-05-20T03:55:09.316Z,92755.00
2023-05-20T03:56:09.331Z,92755.00
2023-05-20T03:57:09.359Z,92757.00
2023-05-20T03:58:09.379Z,92759.00
2023-05-20T03:59:09.437Z,92757.00
2023-05-20T04:00:09.454Z,92757.00
2023-05-20T04:01:09.495Z,92763.00
2023-05-20T04:02:10.412Z,92763.00
2023-05-20T04:03:09.599Z,92765.00
2023-05-20T04:04:09.676Z,92767.00
2023-05-20T04:05:09.615Z,92767.00
2023-05-20T04:06:09.650Z,92769.00
2023-05-20T04:07:09.760Z,92771.00
2023-05-20T04:08:09.775Z,92769.00
2023-05-20T04:09:09.738Z,92767.00
2023-05-20T04:10:09.769Z,92769.00
2023-05-20T04:11:09.787Z,92767.00
2023-05-20T04:12:09.814Z,92767.00
2023-05-20T04:13:09.844Z,92767.00
2023-05-20T04:14:09.876Z,92765.00
2023-05-20T04:15:09.914Z,92767.00
2023-05-20T04:16:09.975Z,92765.00
2023-05-20T04:17:09.956Z,92767.00
2023-05-20T04:18:09.999Z,92765.00
2023-05-20T04:19:10.067Z,92763.00
2023-05-20T04:20:10.040Z,92765.00
2023-05-20T04:21:10.100Z,92765.00
2023-05-20T04:22:10.100Z,92763.00
2023-05-20T04:23:10.122Z,92761.00
2023-05-20T04:24:10.149Z,92763.00
2023-05-20T04:25:10.173Z,92763.00
2023-05-20T04:26:10.217Z,92763.00
2023-05-20T04:27:10.232Z,92763.00
2023-05-20T04:28:10.258Z,92761.00
2023-05-20T04:29:10.288Z,92763.00
2023-05-20T04:30:10.317Z,92763.00
2023-05-20T04:31:10.456Z,92765.00
2023-05-20T04:32:10.394Z,92765.00
2023-05-20T04:33:10.427Z,92761.00
2023-05-20T04:34:10.437Z,92761.00
2023-05-20T04:35:10.496Z,92759.00
2023-05-20T04:36:10.490Z,92759.00
2023-05-20T04:37:10.520Z,92757.00
2023-05-20T04:38:10.560Z,92757.00
2023-05-20T04:39:10.650Z,92755.00
2023-05-20T04:40:10.621Z,92761.00
2023-05-20T04:41:10.651Z,92763.00
2023-05-20T04:42:10.698Z,92765.00
2023-05-20T04:43:10.697Z,92763.00
2023-05-20T04:44:10.746Z,92759.00
2023-05-20T04:45:10.761Z,92757.00
2023-05-20T04:46:10.807Z,92753.00
2023-05-20T04:47:10.810Z,92755.00
2023-05-20T04:48:10.886Z,92751.00
2023-05-20T04:49:10.904Z,92753.00
2023-05-20T04:50:10.950Z,92757.00
2023-05-20T04:51:10.934Z,92761.00
2023-05-20T04:52:10.961Z,92765.00
2023-05-20T04:53:11.018Z,92765.00
2023-05-20T04:54:11.040Z,92767.00
2023-05-20T04:55:11.066Z,92769.00
2023-05-20T04:56:11.097Z,92767.00
2023-05-20T04:57:11.149Z,92769.00
2023-05-20T04:58:11.168Z,92771.00
2023-05-20T04:59:11.187Z,92773.00
2023-05-20T05:00:11.221Z,92775.00
2023-05-20T05:01:11.285Z,92779.00
2023-05-20T05:02:11.290Z,92779.00
2023-05-20T05:03:11.326Z,92779.00
2023-05-20T05:04:11.390Z,92783.00
2023-05-20T05:05:11.372Z,92781.00
2023-05-20T05:06:11.423Z,92779.00
2023-05-20T05:07:11.441Z,92775.00
2023-05-20T05:08:11.472Z,92769.00
2023-05-20T05:09:11.517Z,92763.00
2023-05-20T05:10:11.536Z,92761.00
2023-05-20T05:11:11.577Z,92763.00
2023-05-20T05:12:11.605Z,92761.00
2023-05-20T05:13:11.647Z,92763.00
2023-05-20T05:14:11.682Z,92761.00
2023-05-20T05:15:11.762Z,92761.00
2023-05-20T05:16:11.794Z,92759.00
2023-05-20T05:17:11.761Z,92759.00
2023-05-20T05:18:11.863Z,92755.00
2023-05-20T05:19:11.856Z,92755.00
2023-05-20T05:20:11.872Z,92751.00
2023-05-20T05:21:11.895Z,92749.00
2023-05-20T05:22:11.933Z,92751.00
2023-05-20T05:23:11.974Z,92749.00
2023-05-20T05:24:12.007Z,92751.00
2023-05-20T05:25:12.038Z,92751.00
2023-05-20T05:26:12.071Z,92755.00
2023-05-20T05:27:12.107Z,92749.00
2023-05-20T05:28:12.207Z,92751.00
2023-05-20T05:29:12.186Z,92749.00
2023-05-20T05:30:12.202Z,92747.00
2023-05-20T05:31:12.258Z,92747.00
2023-05-20T05:32:12.349Z,92743.00
2023-05-20T05:33:12.351Z,92743.00
2023-05-20T05:34:12.353Z,92741.00
2023-05-20T05:35:12.467Z,92743.00
2023-05-20T05:36:12.429Z,92741.00
2023-05-20T05:37:12.451Z,92745.00
2023-05-20T05:38:12.647Z,92745.00
2023-05-20T05:39:12.532Z,92749.00
2023-05-20T05:40:12.586Z,92747.00
2023-05-20T05:41:12.618Z,92745.00
2023-05-20T05:42:12.663Z,92745.00
2023-05-20T05:43:12.703Z,92747.00
2023-05-20T05:44:12.760Z,92747.00
2023-05-20T05:45:12.760Z,92747.00
2023-05-20T05:46:12.820Z,92747.00
2023-05-20T05:47:12.970Z,92747.00
2023-05-20T05:48:12.941Z,92745.00
2023-05-20T05:49:12.940Z,92747.00
2023-05-20T05:50:12.990Z,92747.00
2023-05-20T05:51:13.026Z,92745.00
2023-05-20T05:52:13.044Z,92749.00
2023-05-20T05:53:13.080Z,92745.00
2023-05-20T05:54:13.091Z,92749.00
2023-05-20T05:55:13.153Z,92747.00
2023-05-20T05:56:13.219Z,92749.00
2023-05-20T05:57:13.266Z,92751.00
2023-05-20T05:58:13.302Z,92753.00
2023-05-20T05:59:13.892Z,92757.00
2023-05-20T06:00:13.384Z,92755.00
2023-05-20T06:01:13.429Z,92755.00
2023-05-20T06:02:13.521Z,92755.00
2023-05-20T06:03:13.572Z,92755.00
2023-05-20T06:04:13.599Z,92753.00
2023-05-20T06:05:13.630Z,92755.00
2023-05-20T06:06:13.673Z,92757.00
2023-05-20T06:07:13.712Z,92755.00
2023-05-20T06:08:13.753Z,92755.00
2023-05-20T06:09:13.790Z,92755.00
2023-05-20T06:10:13.820Z,92755.00
2023-05-20T06:11:13.855Z,92755.00
2023-05-20T06:12:14.203Z,92757.00
2023-05-20T06:13:13.927Z,92757.00
2023-05-20T06:14:13.947Z,92759.00
2023-05-20T06:15:14.893Z,92757.00
2023-05-20T06:16:14.044Z,92755.00
2023-05-20T06:17:14.044Z,92751.00
2023-05-20T06:18:14.088Z,92755.00
2023-05-20T06:19:14.201Z,92753.00
2023-05-20T06:20:14.149Z,92753.00
2023-05-20T06:21:14.181Z,92753.00
2023-05-20T06:22:14.213Z,92751.00
2023-05-20T06:23:14.247Z,92749.00
2023-05-20T06:24:14.307Z,92749.00
2023-05-20T06:25:14.373Z,92749.00
2023-05-20T06:26:14.469Z,92747.00
2023-05-20T06:27:14.469Z,92747.00
2023-05-20T06:28:14.560Z,92747.00
2023-05-20T06:29:14.622Z,92747.00
2023-05-20T06:30:14.703Z,92747.00
2023-05-20T06:31:14.761Z,92745.00
2023-05-20T06:32:14.811Z,92745.00
2023-05-20T06:33:14.869Z,92743.00
2023-05-20T06:34:14.910Z,92743.00
2023-05-20T06:35:14.984Z,92741.00
2023-05-20T06:36:15.055Z,92745.00
2023-05-20T06:37:15.121Z,92741.00
2023-05-20T06:38:15.221Z,92741.00
2023-05-20T06:39:15.248Z,92738.00
2023-05-20T06:40:15.332Z,92736.00
2023-05-20T06:41:15.373Z,92736.00
2023-05-20T06:42:15.439Z,92738.00
2023-05-20T06:43:15.903Z,92736.00
2023-05-20T06:44:16.421Z,92736.00
2023-05-20T06:45:15.665Z,92732.00
2023-05-20T06:46:15.781Z,92734.00
2023-05-20T06:47:15.828Z,92732.00
2023-05-20T06:48:15.894Z,92732.00
2023-05-20T06:49:15.987Z,92730.00
2023-05-20T06:50:16.025Z,92726.00
2023-05-20T06:51:16.112Z,92724.00
2023-05-20T06:52:16.188Z,92722.00
2023-05-20T06:53:16.293Z,92720.00
2023-05-20T06:54:16.349Z,92720.00
2023-05-20T06:55:16.399Z,92720.00
2023-05-20T06:56:16.526Z,92720.00
2023-05-20T06:57:16.503Z,92720.00
2023-05-20T06:58:16.555Z,92720.00
2023-05-20T06:59:16.623Z,92718.00
2023-05-20T07:00:16.680Z,92716.00
2023-05-20T07:01:18.353Z,92710.00
2023-05-20T07:02:16.890Z,92710.00
2023-05-20T07:03:17.069Z,92706.00
2023-05-20T07:04:17.006Z,92706.00
2023-05-20T07:05:17.015Z,92706.00
2023-05-20T07:06:17.082Z,92702.00
2023-05-20T07:07:17.525Z,92704.00
2023-05-20T07:08:17.423Z,92704.00
2023-05-20T07:09:17.229Z,92704.00
2023-05-20T07:10:17.906Z,92706.00
2023-05-20T07:11:17.373Z,92706.00
2023-05-20T07:12:17.413Z,92704.00
2023-05-20T07:13:17.448Z,92702.00
2023-05-20T07:14:17.485Z,92700.00
2023-05-20T07:15:17.543Z,92698.00
2023-05-20T07:16:17.784Z,92696.00
2023-05-20T07:17:17.663Z,92694.00
2023-05-20T07:18:17.727Z,92693.00
2023-05-20T07:19:17.813Z,92691.00
2023-05-20T07:20:17.839Z,92689.00
2023-05-20T07:21:17.902Z,92691.00
2023-05-20T07:22:18.907Z,92691.00
2023-05-20T07:23:18.057Z,92691.00
2023-05-20T07:24:18.197Z,92691.00
2023-05-20T07:25:18.206Z,92691.00
2023-05-20T07:26:18.319Z,92693.00
2023-05-20T07:27:18.417Z,92691.00
2023-05-20T07:28:18.488Z,92691.00
2023-05-20T07:29:18.608Z,92691.00
2023-05-20T07:30:18.650Z,92693.00
2023-05-20T07:31:18.769Z,92691.00
2023-05-20T07:32:18.835Z,92687.00
2023-05-20T07:33:18.929Z,92687.00
2023-05-20T07:34:19.008Z,92683.00
2023-05-20T07:35:19.102Z,92683.00
2023-05-20T07:36:19.207Z,92681.00
2023-05-20T07:37:19.266Z,92677.00
2023-05-20T07:38:19.348Z,92681.00
2023-05-20T07:39:19.423Z,92679.00
2023-05-20T07:40:19.522Z,92679.00
2023-05-20T07:41:19.619Z,92679.00
2023-05-20T07:42:19.706Z,92681.00
2023-05-20T07:43:19.870Z,92683.00
2023-05-20T07:44:19.909Z,92683.00
2023-05-20T07:45:19.978Z,92685.00
2023-05-20T07:46:20.326Z,92685.00
2023-05-20T07:47:20.243Z,92685.00
2023-05-20T07:48:20.278Z,92685.00
2023-05-20T07:49:20.369Z,92685.00
2023-05-20T07:50:20.468Z,92683.00
2023-05-20T07:51:20.545Z,92681.00
2023-05-20T07:52:20.653Z,92681.00
2023-05-20T07:53:20.738Z,92677.00
2023-05-20T07:54:20.817Z,92679.00
2023-05-20T07:55:20.911Z,92675.00
2023-05-20T07:56:21.003Z,92673.00
2023-05-20T07:57:21.104Z,92671.00
2023-05-20T07:58:21.193Z,92673.00
2023-05-20T07:59:21.277Z,92669.00
2023-05-20T08:00:21.443Z,92673.00
2023-05-20T08:01:21.460Z,92673.00
2023-05-20T08:02:21.723Z,92671.00
2023-05-20T08:03:21.696Z,92669.00
2023-05-20T08:04:21.762Z,92669.00
2023-05-20T08:05:21.817Z,92671.00
2023-05-20T08:06:21.899Z,92673.00
2023-05-20T08:07:21.994Z,92673.00
2023-05-20T08:08:22.079Z,92673.00
2023-05-20T08:09:22.162Z,92671.00
2023-05-20T08:10:22.257Z,92669.00
2023-05-20T08:11:22.367Z,92671.00
2023-05-20T08:12:22.445Z,92669.00
2023-05-20T08:13:22.544Z,92669.00
2023-05-20T08:14:22.620Z,92667.00
2023-05-20T08:15:22.692Z,92667.00
2023-05-20T08:16:22.838Z,92665.00
2023-05-20T08:17:22.980Z,92665.00
2023-05-20T08:18:22.958Z,92661.00
2023-05-20T08:19:23.084Z,92657.00
2023-05-20T08:20:23.176Z,92659.00
2023-05-20T08:21:23.219Z,92657.00
2023-05-20T08:22:23.302Z,92653.00
2023-05-20T08:23:23.378Z,92653.00
2023-05-20T08:24:23.453Z,92649.00
2023-05-20T08:25:23.539Z,92645.00
2023-05-20T08:26:23.649Z,92643.00
2023-05-20T08:27:23.707Z,92641.00
2023-05-20T08:28:23.795Z,92641.00
2023-05-20T08:29:23.880Z,92639.00
2023-05-20T08:30:23.951Z,92636.00
2023-05-20T08:31:24.046Z,92636.00
2023-05-20T08:32:24.127Z,92634.00
2023-05-20T08:33:24.209Z,92632.00
2023-05-20T08:34:24.286Z,92632.00
2023-05-20T08:35:24.791Z,92630.00
2023-05-20T08:36:24.441Z,92630.00
2023-05-20T08:37:24.521Z,92632.00
2023-05-20T08:38:24.614Z,92630.00
2023-05-20T08:39:24.752Z,92630.00
2023-05-20T08:40:24.767Z,92628.00
2023-05-20T08:41:24.842Z,92628.00
2023-05-20T08:42:24.929Z,92628.00
2023-05-20T08:43:25.002Z,92630.00
2023-05-20T08:44:25.939Z,92626.00
2023-05-20T08:45:25.168Z,92626.00
2023-05-20T08:46:25.327Z,92626.00
2023-05-20T08:47:25.366Z,92628.00
2023-05-20T08:48:25.422Z,92626.00
2023-05-20T08:49:25.516Z,92624.00
2023-05-20T08:50:25.574Z,92620.00
2023-05-20T08:51:25.948Z,92618.00
2023-05-20T08:52:25.754Z,92616.00
2023-05-20T08:53:25.824Z,92616.00
2023-05-20T08:54:25.897Z,92610.00
2023-05-20T08:55:25.986Z,92614.00
2023-05-20T08:56:29.285Z,92614.00
2023-05-20T08:57:26.094Z,92614.00
2023-05-20T08:58:26.140Z,92612.00
2023-05-20T08:59:26.149Z,92612.00
2023-05-20T09:00:26.157Z,92610.00
2023-05-20T09:01:26.240Z,92608.00
2023-05-20T09:02:26.232Z,92608.00
2023-05-20T09:03:26.424Z,92610.00
2023-05-20T09:04:26.335Z,92606.00
2023-05-20T09:05:26.284Z,92608.00
2023-05-20T09:06:26.305Z,92604.00
2023-05-20T09:07:26.338Z,92606.00
2023-05-20T09:08:26.336Z,92610.00
2023-05-20T09:09:26.363Z,92608.00
2023-05-20T09:10:26.390Z,92606.00
2023-05-20T09:11:26.487Z,92604.00
2023-05-20T09:12:26.441Z,92602.00
2023-05-20T09:13:26.489Z,92602.00
2023-05-20T09:14:26.549Z,92596.00
2023-05-20T09:15:26.632Z,92596.00
2023-05-20T09:16:26.711Z,92592.00
2023-05-20T09:17:26.763Z,92591.00
2023-05-20T09:18:26.839Z,92589.00
2023-05-20T09:19:27.016Z,92592.00
2023-05-20T09:20:27.961Z,92589.00
2023-05-20T09:21:27.071Z,92585.00
2023-05-20T09:22:27.161Z,92585.00
2023-05-20T09:23:28.010Z,92585.00
2023-05-20T09:24:27.319Z,92585.00
2023-05-20T09:25:27.345Z,92575.00
2023-05-20T09:26:27.417Z,92573.00
2023-05-20T09:27:27.473Z,92569.00
2023-05-20T09:28:27.564Z,92567.00
2023-05-20T09:29:27.624Z,92565.00
2023-05-20T09:30:27.689Z,92563.00
2023-05-20T09:31:27.805Z,92561.00
2023-05-20T09:32:27.872Z,92565.00
2023-05-20T09:33:28.002Z,92565.00
2023-05-20T09:34:27.988Z,92565.00
2023-05-20T09:35:28.054Z,92563.00
2023-05-20T09:36:28.131Z,92565.00
2023-05-20T09:37:28.195Z,92561.00
2023-05-20T09:38:28.293Z,92559.00
2023-05-20T09:39:28.358Z,92559.00
2023-05-20T09:40:28.422Z,92557.00
2023-05-20T09:41:28.517Z,92555.00
2023-05-20T09:42:28.578Z,92552.00
2023-05-20T09:43:28.682Z,92552.00
2023-05-20T09:44:28.731Z,92550.00
2023-05-20T09:45:28.808Z,92550.00
2023-05-20T09:46:28.930Z,92548.00
2023-05-20T09:47:28.952Z,92550.00
2023-05-20T09:48:29.032Z,92550.00
2023-05-20T09:49:29.084Z,92554.00
2023-05-20T09:50:29.172Z,92554.00
2023-05-20T09:51:29.234Z,92552.00
2023-05-20T09:52:29.304Z,92548.00
2023-05-20T09:53:29.390Z,92546.00
2023-05-20T09:54:29.453Z,92550.00
2023-05-20T09:55:29.536Z,92546.00
2023-05-20T09:56:29.599Z,92544.00
2023-05-20T09:57:29.670Z,92542.00
2023-05-20T09:58:29.784Z,92540.00
2023-05-20T09:59:29.812Z,92538.00
2023-05-20T10:00:30.465Z,92538.00
2023-05-20T10:01:29.975Z,92530.00
2023-05-20T10:02:30.146Z,92528.00
2023-05-20T10:03:31.129Z,92528.00
2023-05-20T10:04:30.165Z,92522.00
2023-05-20T10:05:30.250Z,92522.00
2023-05-20T10:06:30.320Z,92518.00
2023-05-20T10:07:41.363Z,92516.00
2023-05-20T10:08:31.486Z,92518.00
2023-05-20T10:09:30.445Z,92524.00
2023-05-20T10:10:30.471Z,92522.00
2023-05-20T10:11:30.498Z,92524.00
2023-05-20T10:12:30.524Z,92520.00
2023-05-20T10:13:30.554Z,92520.00
2023-05-20T10:14:30.594Z,92516.00
2023-05-20T10:15:30.618Z,92514.00
2023-05-20T10:16:30.799Z,92510.00
2023-05-20T10:17:30.678Z,92510.00
2023-05-20T10:18:30.676Z,92508.00
2023-05-20T10:19:30.879Z,92508.00
2023-05-20T10:20:30.720Z,92506.00
2023-05-20T10:21:30.756Z,92504.00
2023-05-20T10:22:30.829Z,92508.00
2023-05-20T10:23:30.891Z,92508.00
2023-05-20T10:24:30.957Z,92502.00
2023-05-20T10:25:31.024Z,92506.00
2023-05-20T10:26:31.104Z,92504.00
2023-05-20T10:27:31.168Z,92500.00
2023-05-20T10:28:31.239Z,92499.00
2023-05-20T10:29:31.352Z,92500.00
2023-05-20T10:30:31.362Z,92500.00
2023-05-20T10:31:31.415Z,92499.00
2023-05-20T10:32:31.707Z,92502.00
2023-05-20T10:33:31.582Z,92500.00
2023-05-20T10:34:31.617Z,92499.00
2023-05-20T10:35:31.705Z,92495.00
2023-05-20T10:36:31.743Z,92497.00
2023-05-20T10:37:31.807Z,92493.00
2023-05-20T10:38:31.860Z,92491.00
2023-05-20T10:39:31.939Z,92491.00
2023-05-20T10:40:32.056Z,92491.00
2023-05-20T10:41:32.059Z,92491.00
2023-05-20T10:42:32.119Z,92489.00
2023-05-20T10:43:32.174Z,92489.00
2023-05-20T10:44:32.243Z,92491.00
2023-05-20T10:45:32.298Z,92491.00
2023-05-20T10:46:41.952Z,92487.00
2023-05-20T10:47:33.462Z,92485.00
2023-05-20T10:48:32.557Z,92485.00
2023-05-20T10:49:32.406Z,92487.00
2023-05-20T10:50:32.547Z,92483.00
2023-05-20T10:51:32.523Z,92485.00
2023-05-20T10:52:32.436Z,92483.00
2023-05-20T10:53:34.121Z,92485.00
2023-05-20T10:54:32.478Z,92481.00
2023-05-20T10:55:32.484Z,92481.00
2023-05-20T10:56:32.494Z,92479.00
2023-05-20T10:57:32.505Z,92481.00
2023-05-20T10:58:32.604Z,92479.00
2023-05-20T10:59:32.618Z,92481.00
2023-05-20T11:00:32.969Z,92481.00
2023-05-20T11:01:32.848Z,92479.00
2023-05-20T11:02:32.851Z,92479.00
2023-05-20T11:03:32.902Z,92479.00
2023-05-20T11:04:32.974Z,92481.00
2023-05-20T11:05:32.956Z,92481.00
2023-05-20T11:06:33.012Z,92481.00
2023-05-20T11:07:33.054Z,92479.00
2023-05-20T11:08:33.118Z,92477.00
2023-05-20T11:09:33.172Z,92479.00
2023-05-20T11:10:33.404Z,92479.00
2023-05-20T11:11:33.309Z,92481.00
2023-05-20T11:12:34.010Z,92477.00
2023-05-20T11:13:33.410Z,92475.00
2023-05-20T11:14:34.003Z,92477.00
2023-05-20T11:15:33.516Z,92473.00
2023-05-20T11:16:33.634Z,92475.00
2023-05-20T11:17:33.714Z,92473.00
2023-05-20T11:18:33.678Z,92473.00
2023-05-20T11:19:33.822Z,92473.00
2023-05-20T11:20:33.964Z,92471.00
2023-05-20T11:21:34.496Z,92469.00
2023-05-20T11:22:33.886Z,92469.00
2023-05-20T11:23:33.947Z,92469.00
2023-05-20T11:24:34.021Z,92469.00
2023-05-20T11:25:34.066Z,92469.00
2023-05-20T11:26:34.130Z,92467.00
2023-05-20T11:27:34.182Z,92467.00
2023-05-20T11:28:34.305Z,92465.00
2023-05-20T11:29:34.277Z,92463.00
2023-05-20T11:30:34.442Z,92467.00
2023-05-20T11:31:34.424Z,92463.00
2023-05-20T11:32:34.446Z,92459.00
2023-05-20T11:33:34.490Z,92461.00
2023-05-20T11:34:34.555Z,92465.00
2023-05-20T11:35:34.606Z,92461.00
2023-05-20T11:36:34.641Z,92461.00
2023-05-20T11:37:34.712Z,92463.00
2023-05-20T11:38:34.770Z,92467.00
2023-05-20T11:39:34.817Z,92463.00
2023-05-20T11:40:42.736Z,92463.00
2023-05-20T11:41:35.889Z,92461.00
2023-05-20T11:42:34.901Z,92459.00
2023-05-20T11:43:34.921Z,92457.00
2023-05-20T11:44:34.945Z,92457.00